createdAt,value
2023-01-04T00:00:39.429Z,2.70
2023-01-04T00:03:06.514Z,3.28
2023-01-04T00:05:33.839Z,2.40
2023-01-04T00:08:00.729Z,3.03
2023-01-04T00:10:27.597Z,2.78
2023-01-04T00:12:54.448Z,2.85
2023-01-04T00:15:21.232Z,2.42
2023-01-04T00:17:48.068Z,2.72
2023-01-04T00:20:15.245Z,2.28
2023-01-04T00:22:42.116Z,2.75
2023-01-04T00:25:09.275Z,2.33
2023-01-04T00:27:36.117Z,2.50
2023-01-04T00:30:03.009Z,2.00
2023-01-04T00:32:29.894Z,1.60
2023-01-04T00:34:56.732Z,2.35
2023-01-04T00:37:23.674Z,2.40
2023-01-04T00:39:53.201Z,1.73
2023-01-04T00:42:20.111Z,2.35
2023-01-04T00:44:46.945Z,2.00
2023-01-04T00:47:13.769Z,2.17
2023-01-04T00:49:40.658Z,2.40
2023-01-04T00:52:08.226Z,2.30
2023-01-04T00:54:35.027Z,2.13
2023-01-04T00:57:01.893Z,2.42
2023-01-04T00:59:28.741Z,2.45
2023-01-04T01:01:55.697Z,2.10
2023-01-04T01:04:23.352Z,2.20
2023-01-04T01:06:50.435Z,2.53
2023-01-04T01:09:17.642Z,2.53
2023-01-04T01:11:44.655Z,2.45
2023-01-04T01:14:17.829Z,2.70
2023-01-04T01:16:55.202Z,2.95
2023-01-04T01:19:23.276Z,2.90
2023-01-04T01:21:50.083Z,2.80
2023-01-04T01:24:18.943Z,3.15
2023-01-04T01:26:45.794Z,2.88
2023-01-04T01:29:12.649Z,3.00
2023-01-04T01:31:40.362Z,3.22
2023-01-04T01:34:07.263Z,2.90
2023-01-04T01:36:34.081Z,2.55
2023-01-04T01:39:00.942Z,2.83
2023-01-04T01:41:29.593Z,2.67
2023-01-04T01:44:02.816Z,2.65
2023-01-04T01:46:44.743Z,2.85
2023-01-04T01:49:31.146Z,2.90
2023-01-04T01:51:59.441Z,2.83
2023-01-04T01:54:28.987Z,2.90
2023-01-04T01:56:57.463Z,2.85
2023-01-04T01:59:24.266Z,3.05
2023-01-04T02:01:51.217Z,3.03
2023-01-04T02:04:18.134Z,3.17
2023-01-04T02:06:50.172Z,3.08
2023-01-04T02:09:17.526Z,3.25
2023-01-04T02:11:44.384Z,3.10
2023-01-04T02:14:30.066Z,3.20
2023-01-04T02:17:01.159Z,3.20
2023-01-04T02:20:05.423Z,3.30
2023-01-04T02:22:54.201Z,3.20
2023-01-04T02:25:48.603Z,3.03
2023-01-04T02:28:36.009Z,3.10
2023-01-04T02:31:02.895Z,2.83
2023-01-04T02:33:32.782Z,2.78
2023-01-04T02:36:18.004Z,2.80
2023-01-04T02:39:06.792Z,3.20
2023-01-04T02:42:02.623Z,3.35
2023-01-04T02:44:53.180Z,2.90
2023-01-04T02:47:56.737Z,3.38
2023-01-04T02:50:41.008Z,2.92
2023-01-04T02:53:08.797Z,3.13
2023-01-04T02:55:48.865Z,3.28
2023-01-04T02:58:37.310Z,3.15
2023-01-04T03:01:53.244Z,3.33
2023-01-04T03:04:47.864Z,2.72
2023-01-04T03:07:40.048Z,3.22
2023-01-04T03:10:30.436Z,2.60
2023-01-04T03:13:49.588Z,3.35
2023-01-04T03:16:18.797Z,2.88
2023-01-04T03:18:48.085Z,3.17
2023-01-04T03:21:15.265Z,3.45
2023-01-04T03:24:00.749Z,3.83
2023-01-04T03:26:51.700Z,3.08
2023-01-04T03:29:57.186Z,2.50
2023-01-04T03:32:56.132Z,3.20
2023-01-04T03:35:24.359Z,2.40
2023-01-04T03:38:30.619Z,2.35
2023-01-04T03:41:19.275Z,2.88
2023-01-04T03:44:21.196Z,2.72
2023-01-04T03:47:08.774Z,2.13
2023-01-04T03:50:00.639Z,2.63
2023-01-04T03:52:27.802Z,2.47
2023-01-04T03:54:54.613Z,1.90
2023-01-04T03:57:21.415Z,1.90
2023-01-04T03:59:50.253Z,1.70
2023-01-04T04:02:19.601Z,2.15
2023-01-04T04:05:04.898Z,2.35
2023-01-04T04:07:50.284Z,1.90
2023-01-04T04:10:17.225Z,1.70
2023-01-04T04:12:43.995Z,2.05
2023-01-04T04:15:11.074Z,1.50
2023-01-04T04:17:37.869Z,1.77
2023-01-04T04:20:05.266Z,1.75
2023-01-04T04:22:32.051Z,1.60
2023-01-04T04:24:58.900Z,2.10
2023-01-04T04:27:25.657Z,1.40
2023-01-04T04:29:52.556Z,1.70
2023-01-04T04:32:19.347Z,1.70
2023-01-04T04:34:46.236Z,1.50
2023-01-04T04:37:13.049Z,1.70
2023-01-04T04:39:39.924Z,1.45
2023-01-04T04:42:06.758Z,1.70
2023-01-04T04:44:34.414Z,1.85
2023-01-04T04:47:01.271Z,1.65
2023-01-04T04:49:28.183Z,1.55
2023-01-04T04:51:54.987Z,1.75
2023-01-04T04:54:21.986Z,1.65
2023-01-04T04:56:49.208Z,1.70
2023-01-04T04:59:16.250Z,1.80
2023-01-04T05:01:43.293Z,1.58
2023-01-04T05:04:16.260Z,2.00
2023-01-04T05:06:43.871Z,1.60
2023-01-04T05:09:11.779Z,1.75
2023-01-04T05:11:57.119Z,2.05
2023-01-04T05:14:23.921Z,1.88
2023-01-04T05:16:50.800Z,2.08
2023-01-04T05:19:17.879Z,2.70
2023-01-04T05:21:44.687Z,2.25
2023-01-04T05:24:11.919Z,2.50
2023-01-04T05:26:39.250Z,2.90
2023-01-04T05:29:06.108Z,3.00
2023-01-04T05:31:32.951Z,2.35
2023-01-04T05:33:59.740Z,2.25
2023-01-04T05:36:26.635Z,2.40
2023-01-04T05:38:53.417Z,3.13
2023-01-04T05:41:38.679Z,2.90
2023-01-04T05:44:05.578Z,3.17
2023-01-04T05:46:32.513Z,3.15
2023-01-04T05:48:59.428Z,2.88
2023-01-04T05:51:26.186Z,2.75
2023-01-04T05:53:53.029Z,2.80
2023-01-04T05:56:19.867Z,2.83
2023-01-04T05:58:46.699Z,2.78
2023-01-04T06:01:13.551Z,3.15
2023-01-04T06:03:40.521Z,2.58
2023-01-04T06:06:07.454Z,2.40
2023-01-04T06:08:34.251Z,2.53
2023-01-04T06:11:01.138Z,2.72
2023-01-04T06:13:28.009Z,2.85
2023-01-04T06:15:54.822Z,2.22
2023-01-04T06:18:21.639Z,2.35
2023-01-04T06:20:51.226Z,2.42
2023-01-04T06:23:18.082Z,2.50
2023-01-04T06:25:44.945Z,2.30
2023-01-04T06:28:11.822Z,2.35
2023-01-04T06:30:38.702Z,2.40
2023-01-04T06:33:05.711Z,2.40
2023-01-04T06:35:32.517Z,2.40
2023-01-04T06:37:59.348Z,2.55
2023-01-04T06:40:26.130Z,2.20
2023-01-04T06:42:53.088Z,2.17
2023-01-04T06:45:19.850Z,2.05
2023-01-04T06:47:48.089Z,1.92
2023-01-04T06:50:15.010Z,2.05
2023-01-04T06:52:41.912Z,2.03
2023-01-04T06:55:11.913Z,2.20
2023-01-04T06:57:38.883Z,2.22
2023-01-04T07:00:06.864Z,2.40
2023-01-04T07:02:33.957Z,2.60
2023-01-04T07:05:01.248Z,2.20
2023-01-04T07:07:28.163Z,3.42
2023-01-04T07:09:54.940Z,2.53
2023-01-04T07:12:21.783Z,2.22
2023-01-04T07:14:48.570Z,2.70
2023-01-04T07:17:15.463Z,2.30
2023-01-04T07:19:42.272Z,2.35
2023-01-04T07:22:09.118Z,2.22
2023-01-04T07:24:35.927Z,2.45
2023-01-04T07:27:02.943Z,2.42
2023-01-04T07:29:29.766Z,2.30
2023-01-04T07:31:56.655Z,2.50
2023-01-04T07:34:24.993Z,2.35
2023-01-04T07:36:51.840Z,1.95
2023-01-04T07:39:18.700Z,2.30
2023-01-04T07:41:45.682Z,1.90
2023-01-04T07:44:14.717Z,2.20
2023-01-04T07:46:42.633Z,1.92
2023-01-04T07:49:17.309Z,1.80
2023-01-04T07:51:48.699Z,1.80
2023-01-04T07:54:16.534Z,1.73
2023-01-04T07:56:44.107Z,1.73
2023-01-04T07:59:11.360Z,1.95
2023-01-04T08:01:38.870Z,1.73
2023-01-04T08:04:06.872Z,1.90
2023-01-04T08:06:34.254Z,1.85
2023-01-04T08:09:01.898Z,1.60
2023-01-04T08:11:28.913Z,1.90
2023-01-04T08:13:55.780Z,1.55
2023-01-04T08:16:33.241Z,1.60
2023-01-04T08:19:04.875Z,1.77
2023-01-04T08:21:32.637Z,1.80
2023-01-04T08:23:59.490Z,2.05
2023-01-04T08:26:26.470Z,1.60
2023-01-04T08:28:54.742Z,1.88
2023-01-04T08:31:23.048Z,1.88
2023-01-04T08:33:50.090Z,1.95
2023-01-04T08:36:26.500Z,2.20
2023-01-04T08:39:01.048Z,1.80
2023-01-04T08:44:19.042Z,1.80
2023-01-04T08:46:46.075Z,2.40
2023-01-04T08:49:13.108Z,1.98
2023-01-04T08:51:40.149Z,2.05
2023-01-04T08:54:07.010Z,1.92
2023-01-04T08:56:33.948Z,2.13
2023-01-04T08:59:01.025Z,1.90
2023-01-04T09:01:28.068Z,2.00
2023-01-04T09:03:56.444Z,3.00
2023-01-04T09:06:23.399Z,2.42
2023-01-04T09:08:50.607Z,2.00
2023-01-04T09:11:19.685Z,2.13
2023-01-04T09:13:46.883Z,2.35
2023-01-04T09:16:18.328Z,2.03
2023-01-04T09:18:45.448Z,2.43
2023-01-04T09:21:16.996Z,1.80
2023-01-04T09:23:44.009Z,1.98
2023-01-04T09:26:12.567Z,2.08
2023-01-04T09:28:39.656Z,2.25
2023-01-04T09:31:14.181Z,1.80
2023-01-04T09:34:12.884Z,2.38
2023-01-04T09:36:28.822Z,2.30
2023-01-04T09:38:55.645Z,2.47
2023-01-04T09:41:30.136Z,2.20
2023-01-04T09:44:03.687Z,2.15
2023-01-04T09:46:35.599Z,2.50
2023-01-04T09:49:13.939Z,2.95
2023-01-04T09:51:42.313Z,2.08
2023-01-04T09:54:13.501Z,2.95
2023-01-04T09:56:52.130Z,2.75
2023-01-04T09:59:21.519Z,2.85
2023-01-04T10:02:19.865Z,1.92
2023-01-04T10:04:50.159Z,2.33
2023-01-04T10:07:37.250Z,2.30
2023-01-04T10:10:04.442Z,2.13
2023-01-04T10:13:11.538Z,2.63
2023-01-04T10:15:49.836Z,2.53
2023-01-04T10:19:28.971Z,2.38
2023-01-04T10:24:32.543Z,2.53
2023-01-04T10:27:09.105Z,2.55
2023-01-04T10:30:11.293Z,2.78
2023-01-04T10:32:43.448Z,2.22
2023-01-04T10:35:24.559Z,2.72
2023-01-04T10:38:01.835Z,2.60
2023-01-04T10:40:29.384Z,3.35
2023-01-04T10:43:02.441Z,2.67
2023-01-04T10:45:36.587Z,2.67
2023-01-04T10:48:23.258Z,2.70
2023-01-04T10:50:50.136Z,2.45
2023-01-04T10:53:19.689Z,2.28
2023-01-04T10:56:26.475Z,2.60
2023-01-04T10:58:47.239Z,2.83
2023-01-04T11:01:21.154Z,2.50
2023-01-04T11:03:53.899Z,3.45
2023-01-04T11:06:23.442Z,3.35
2023-01-04T11:08:54.130Z,3.10
2023-01-04T11:11:37.354Z,3.13
2023-01-04T11:14:04.311Z,2.72
2023-01-04T11:16:31.126Z,2.90
2023-01-04T11:18:58.018Z,2.65
2023-01-04T11:21:29.414Z,3.03
2023-01-04T11:24:14.607Z,2.75
2023-01-04T11:26:47.222Z,2.47
2023-01-04T11:30:06.075Z,3.03
2023-01-04T11:32:34.796Z,2.63
2023-01-04T11:35:01.689Z,2.70
2023-01-04T11:37:29.785Z,2.83
2023-01-04T11:40:11.733Z,2.85
2023-01-04T11:42:38.722Z,2.65
2023-01-04T11:45:06.116Z,2.78
2023-01-04T11:47:33.518Z,3.70
2023-01-04T11:50:00.463Z,3.25
2023-01-04T11:52:35.509Z,3.13
2023-01-04T11:55:25.124Z,3.05
2023-01-04T11:58:08.154Z,3.55
2023-01-04T12:00:35.064Z,3.08
2023-01-04T12:03:15.441Z,2.78
2023-01-04T12:05:42.480Z,2.65
2023-01-04T12:08:26.881Z,2.95
2023-01-04T12:10:53.756Z,3.10
2023-01-04T12:13:20.694Z,3.50
2023-01-04T12:16:08.155Z,3.10
2023-01-04T12:18:42.650Z,3.08
2023-01-04T12:21:23.370Z,2.95
2023-01-04T12:23:50.808Z,3.17
2023-01-04T12:26:17.821Z,2.83
2023-01-04T12:28:46.387Z,2.72
2023-01-04T12:31:19.778Z,2.92
2023-01-04T12:33:56.126Z,2.83
2023-01-04T12:36:38.525Z,3.78
2023-01-04T12:39:12.225Z,3.35
2023-01-04T12:41:39.062Z,3.45
2023-01-04T12:44:37.111Z,3.15
2023-01-04T12:47:41.860Z,3.78
2023-01-04T12:50:12.701Z,4.00
2023-01-04T12:53:10.037Z,3.47
2023-01-04T12:55:33.815Z,3.38
2023-01-04T12:58:43.863Z,3.85
2023-01-04T13:01:23.684Z,3.25
2023-01-04T13:03:52.248Z,3.85
2023-01-04T13:06:20.305Z,3.95
2023-01-04T13:08:47.132Z,4.13
2023-01-04T13:11:45.903Z,3.90
2023-01-04T13:14:53.230Z,3.55
2023-01-04T13:17:21.863Z,3.42
2023-01-04T13:19:48.805Z,3.67
2023-01-04T13:22:35.989Z,4.38
2023-01-04T13:25:04.742Z,3.75
2023-01-04T13:27:31.634Z,3.58
2023-01-04T13:29:59.094Z,3.95
2023-01-04T13:32:27.140Z,3.83
2023-01-04T13:34:54.073Z,4.20
2023-01-04T13:37:30.889Z,3.88
2023-01-04T13:40:24.900Z,3.78
2023-01-04T13:43:04.808Z,3.88
2023-01-04T13:45:37.893Z,3.78
2023-01-04T13:48:06.291Z,3.95
2023-01-04T13:50:47.437Z,4.22
2023-01-04T13:53:25.575Z,3.92
2023-01-04T13:55:53.831Z,4.13
2023-01-04T13:58:25.182Z,3.95
2023-01-04T14:01:05.785Z,4.10
2023-01-04T14:03:45.682Z,4.15
2023-01-04T14:06:14.428Z,4.00
2023-01-04T14:08:45.913Z,3.70
2023-01-04T14:11:37.933Z,3.97
2023-01-04T14:14:04.905Z,4.07
2023-01-04T14:16:31.746Z,4.82
2023-01-04T14:18:58.820Z,4.80
2023-01-04T14:21:36.812Z,4.50
2023-01-04T14:24:03.691Z,4.30
2023-01-04T14:26:31.757Z,4.03
2023-01-04T14:28:58.755Z,3.58
2023-01-04T14:31:31.155Z,4.07
2023-01-04T14:33:58.154Z,3.90
2023-01-04T14:36:30.091Z,4.07
2023-01-04T14:39:22.157Z,3.60
2023-01-04T14:41:48.970Z,3.50
2023-01-04T14:44:17.113Z,4.70
2023-01-04T14:46:47.000Z,4.45
2023-01-04T14:49:14.465Z,4.32
2023-01-04T14:51:52.075Z,4.90
2023-01-04T14:54:24.559Z,3.95
2023-01-04T14:57:01.518Z,4.35
2023-01-04T14:59:28.749Z,4.25
2023-01-04T15:01:56.189Z,3.80
2023-01-04T15:04:23.509Z,3.95
2023-01-04T15:06:52.780Z,3.35
2023-01-04T15:09:19.791Z,3.75
2023-01-04T15:11:46.643Z,3.67
2023-01-04T15:14:13.590Z,3.53
2023-01-04T15:16:40.455Z,3.40
2023-01-04T15:19:07.390Z,3.55
2023-01-04T15:21:40.530Z,3.13
2023-01-04T15:24:08.314Z,5.35
2023-01-04T15:26:35.209Z,3.20
2023-01-04T15:29:02.140Z,3.92
2023-01-04T15:31:33.707Z,3.53
2023-01-04T15:34:05.315Z,3.00
2023-01-04T15:36:32.210Z,3.58
2023-01-04T15:38:59.182Z,3.30
2023-01-04T15:41:44.764Z,3.00
2023-01-04T15:44:11.981Z,3.65
2023-01-04T15:46:39.208Z,3.85
2023-01-04T15:49:08.316Z,3.80
2023-01-04T15:51:37.500Z,4.10
2023-01-04T15:54:04.387Z,4.95
2023-01-04T15:56:31.216Z,3.95
2023-01-04T15:58:58.002Z,4.13
2023-01-04T16:01:24.985Z,3.63
2023-01-04T16:03:57.832Z,3.20
2023-01-04T16:06:24.807Z,3.25
2023-01-04T16:08:53.031Z,3.97
2023-01-04T16:11:21.709Z,4.40
2023-01-04T16:13:49.031Z,3.28
2023-01-04T16:16:16.274Z,4.30
2023-01-04T16:18:47.095Z,2.92
2023-01-04T16:21:15.073Z,3.58
2023-01-04T16:23:42.001Z,3.40
2023-01-04T16:26:11.340Z,3.33
2023-01-04T16:28:38.297Z,3.50
2023-01-04T16:31:05.983Z,3.42
2023-01-04T16:33:32.885Z,3.10
2023-01-04T16:36:06.998Z,4.38
2023-01-04T16:38:37.655Z,4.15
2023-01-04T16:41:05.394Z,3.80
2023-01-04T16:43:32.854Z,3.95
2023-01-04T16:46:23.546Z,3.95
2023-01-04T16:48:55.486Z,3.50
2023-01-04T16:51:23.005Z,4.07
2023-01-04T16:53:49.995Z,4.38
2023-01-04T16:56:17.697Z,3.95
2023-01-04T16:58:44.874Z,3.70
2023-01-04T17:01:14.801Z,4.88
2023-01-04T17:03:42.658Z,4.22
2023-01-04T17:06:13.832Z,4.18
2023-01-04T17:08:40.693Z,4.40
2023-01-04T17:14:00.047Z,4.00
2023-01-04T17:16:31.114Z,3.72
2023-01-04T17:19:01.529Z,4.07
2023-01-04T17:21:36.094Z,3.35
2023-01-04T17:24:03.318Z,4.75
2023-01-04T17:26:31.090Z,3.72
2023-01-04T17:28:58.446Z,3.60
2023-01-04T17:31:27.256Z,3.53
2023-01-04T17:33:54.221Z,3.72
2023-01-04T17:36:21.486Z,3.00
2023-01-04T17:38:48.538Z,3.08
2023-01-04T17:41:19.707Z,3.33
2023-01-04T17:43:48.499Z,3.95
2023-01-04T17:46:22.625Z,3.10
2023-01-04T17:48:58.910Z,3.67
2023-01-04T17:51:37.670Z,3.50
2023-01-04T17:54:04.743Z,3.50
2023-01-04T17:56:33.443Z,3.55
2023-01-04T17:59:03.689Z,3.22
2023-01-04T18:01:30.845Z,3.60
2023-01-04T18:03:58.853Z,3.95
2023-01-04T18:06:28.162Z,4.07
2023-01-04T18:08:58.594Z,3.42
2023-01-04T18:11:25.487Z,3.88
2023-01-04T18:13:53.177Z,3.42
2023-01-04T18:16:28.115Z,3.83
2023-01-04T18:18:55.631Z,3.67
2023-01-04T18:21:31.472Z,4.18
2023-01-04T18:27:20.429Z,3.10
2023-01-04T18:29:34.165Z,3.53
2023-01-04T18:32:01.073Z,3.92
2023-01-04T18:34:28.067Z,3.63
2023-01-04T18:36:54.884Z,3.90
2023-01-04T18:39:21.878Z,3.70
2023-01-04T18:41:48.663Z,4.28
2023-01-04T18:44:32.827Z,4.20
2023-01-04T18:47:00.516Z,4.03
2023-01-04T18:49:27.380Z,3.78
2023-01-04T18:51:54.226Z,3.35
2023-01-04T18:54:21.647Z,3.60
2023-01-04T18:56:48.967Z,3.63
2023-01-04T18:59:18.682Z,3.78
2023-01-04T19:01:45.985Z,4.20
2023-01-04T19:04:13.539Z,4.70
2023-01-04T19:06:40.722Z,4.38
2023-01-04T19:09:07.852Z,3.80
2023-01-04T19:11:35.433Z,4.13
2023-01-04T19:14:02.963Z,4.32
2023-01-04T19:16:31.156Z,4.07
2023-01-04T19:18:59.257Z,3.55
2023-01-04T19:21:26.243Z,4.00
2023-01-04T19:23:53.170Z,4.20
2023-01-04T19:26:20.437Z,3.85
2023-01-04T19:28:47.324Z,4.18
2023-01-04T19:31:14.413Z,4.40
2023-01-04T19:33:41.660Z,3.65
2023-01-04T19:36:10.094Z,3.38
2023-01-04T19:38:37.138Z,3.67
2023-01-04T19:41:04.878Z,4.40
2023-01-04T19:43:31.793Z,3.70
2023-01-04T19:45:58.771Z,4.43
2023-01-04T19:48:25.717Z,4.15
2023-01-04T19:51:13.742Z,4.65
2023-01-04T19:53:40.883Z,4.95
2023-01-04T19:56:08.461Z,5.28
2023-01-04T19:58:36.556Z,4.70
2023-01-04T20:01:03.756Z,4.85
2023-01-04T20:03:30.717Z,3.75
2023-01-04T20:06:02.195Z,4.35
2023-01-04T20:08:29.116Z,4.13
2023-01-04T20:10:56.462Z,5.03
2023-01-04T20:13:23.404Z,4.20
2023-01-04T20:15:51.522Z,4.88
2023-01-04T20:18:18.755Z,4.70
2023-01-04T20:20:45.625Z,4.68
2023-01-04T20:23:12.591Z,4.10
2023-01-04T20:25:43.646Z,4.93
2023-01-04T20:28:10.634Z,4.50
2023-01-04T20:30:37.871Z,5.25
2023-01-04T20:33:05.108Z,4.45
2023-01-04T20:35:31.924Z,4.65
2023-01-04T20:37:59.008Z,5.57
2023-01-04T20:40:26.396Z,4.72
2023-01-04T20:43:11.615Z,6.18
2023-01-04T20:45:42.413Z,6.25
2023-01-04T20:48:09.386Z,5.53
2023-01-04T20:50:36.390Z,5.07
2023-01-04T20:53:03.437Z,4.47
2023-01-04T20:55:30.231Z,4.25
2023-01-04T20:57:57.175Z,3.70
2023-01-04T21:00:24.032Z,3.85
2023-01-04T21:02:51.200Z,4.50
2023-01-04T21:05:20.491Z,3.83
2023-01-04T21:07:49.785Z,4.03
2023-01-04T21:10:16.657Z,4.28
2023-01-04T21:12:43.528Z,4.25
2023-01-04T21:15:10.598Z,3.53
2023-01-04T21:17:38.188Z,4.28
2023-01-04T21:20:05.451Z,3.78
2023-01-04T21:22:32.397Z,3.95
2023-01-04T21:24:59.296Z,3.80
2023-01-04T21:27:26.934Z,3.65
2023-01-04T21:29:53.845Z,4.05
2023-01-04T21:32:21.119Z,3.78
2023-01-04T21:34:47.940Z,4.25
2023-01-04T21:37:14.799Z,3.80
2023-01-04T21:39:41.638Z,4.45
2023-01-04T21:42:08.502Z,3.40
2023-01-04T21:44:35.295Z,4.32
2023-01-04T21:47:02.132Z,3.92
2023-01-04T21:49:29.175Z,3.95
2023-01-04T21:51:56.059Z,4.55
2023-01-04T21:54:23.661Z,3.97
2023-01-04T21:56:53.803Z,3.95
2023-01-04T21:59:20.616Z,3.70
2023-01-04T22:01:47.520Z,4.38
2023-01-04T22:04:14.595Z,4.47
2023-01-04T22:06:42.138Z,4.85
2023-01-04T22:09:09.106Z,4.63
2023-01-04T22:11:36.829Z,5.38
2023-01-04T22:14:04.039Z,3.83
2023-01-04T22:16:30.943Z,4.15
2023-01-04T22:18:57.732Z,3.38
2023-01-04T22:21:24.750Z,4.35
2023-01-04T22:23:51.715Z,3.65
2023-01-04T22:26:18.627Z,4.22
2023-01-04T22:28:45.559Z,4.72
2023-01-04T22:31:13.233Z,3.42
2023-01-04T22:33:40.338Z,4.25
2023-01-04T22:36:08.838Z,3.28
2023-01-04T22:38:36.582Z,4.00
2023-01-04T22:41:07.893Z,3.70
2023-01-04T22:43:35.557Z,3.30
2023-01-04T22:46:03.530Z,3.20
2023-01-04T22:48:30.428Z,4.05
2023-01-04T22:50:57.325Z,3.22
2023-01-04T22:53:24.110Z,4.10
2023-01-04T22:58:37.783Z,3.22
2023-01-04T23:01:05.462Z,3.28
2023-01-04T23:03:33.408Z,3.80
2023-01-04T23:06:00.340Z,3.15
2023-01-04T23:08:27.182Z,3.83
2023-01-04T23:10:53.963Z,3.72
2023-01-04T23:13:20.900Z,3.05
2023-01-04T23:15:47.717Z,3.55
2023-01-04T23:18:14.588Z,4.07
2023-01-04T23:20:41.504Z,3.47
2023-01-04T23:23:08.341Z,3.45
2023-01-04T23:25:35.184Z,4.13
2023-01-04T23:28:01.965Z,3.25
2023-01-04T23:30:28.829Z,3.40
2023-01-04T23:32:55.710Z,3.53
2023-01-04T23:35:22.817Z,3.80
2023-01-04T23:37:49.635Z,4.22
2023-01-04T23:40:16.624Z,4.28
2023-01-04T23:42:43.419Z,4.00
2023-01-04T23:45:10.416Z,4.85
2023-01-04T23:47:37.283Z,3.42
2023-01-04T23:50:04.430Z,3.75
2023-01-04T23:52:31.325Z,3.63
2023-01-04T23:54:58.160Z,3.80
2023-01-04T23:57:25.000Z,3.85
2023-01-04T23:59:51.854Z,3.63
